createdAt,value
2022-12-31T14:50:50.765Z,4.35
2022-12-31T14:53:25.627Z,5.88
2022-12-31T14:56:05.161Z,4.65
2022-12-31T14:58:36.138Z,4.40
2022-12-31T15:03:45.786Z,3.90
2022-12-31T15:06:26.012Z,4.32
2022-12-31T15:09:08.192Z,4.00
2022-12-31T15:11:46.367Z,5.22
2022-12-31T15:14:19.114Z,5.53
2022-12-31T15:17:07.331Z,5.70
2022-12-31T15:20:02.294Z,4.82
2022-12-31T15:22:43.822Z,3.78
2022-12-31T15:25:28.828Z,4.00
2022-12-31T15:27:59.186Z,3.95
2022-12-31T15:30:37.457Z,4.22
2022-12-31T15:33:18.528Z,3.95
2022-12-31T15:38:14.625Z,5.20
2022-12-31T15:40:52.638Z,4.57
2022-12-31T15:43:25.848Z,4.32
2022-12-31T15:45:55.131Z,5.22
2022-12-31T15:48:52.660Z,5.20
2022-12-31T15:51:36.416Z,4.65
2022-12-31T15:54:05.191Z,5.07
2022-12-31T15:56:41.823Z,5.32
2022-12-31T15:59:14.423Z,5.32
2022-12-31T16:01:43.522Z,6.07
2022-12-31T16:04:27.647Z,4.57
2022-12-31T16:06:58.615Z,5.22
2022-12-31T16:11:56.683Z,4.80
2022-12-31T16:14:31.007Z,4.63
2022-12-31T16:17:00.112Z,5.85
2022-12-31T16:19:33.247Z,6.28
2022-12-31T16:22:13.346Z,6.90
2022-12-31T16:25:02.908Z,7.35
2022-12-31T16:27:31.582Z,7.60
2022-12-31T16:30:29.047Z,6.70
2022-12-31T16:33:00.438Z,6.15
2022-12-31T16:35:31.829Z,6.15
2022-12-31T16:38:04.103Z,5.88
2022-12-31T16:40:31.405Z,5.25
2022-12-31T16:42:58.479Z,5.40
2022-12-31T16:45:35.722Z,5.88
2022-12-31T16:48:16.560Z,4.68
2022-12-31T16:50:47.428Z,5.25
2022-12-31T16:53:18.479Z,4.25
2022-12-31T16:55:54.053Z,5.95
2022-12-31T16:58:34.720Z,5.55
2022-12-31T17:01:23.440Z,5.70
2022-12-31T17:04:03.089Z,5.88
2022-12-31T17:06:33.490Z,7.13
2022-12-31T17:09:00.838Z,6.60
2022-12-31T17:11:30.837Z,5.95
2022-12-31T17:14:12.137Z,7.70
2022-12-31T17:17:01.807Z,5.38
2022-12-31T17:19:43.345Z,5.38
2022-12-31T17:22:36.512Z,7.95
2022-12-31T17:25:08.879Z,6.57
2022-12-31T17:27:37.058Z,31.27
2022-12-31T17:30:36.902Z,12.82
2022-12-31T17:33:25.340Z,12.68
2022-12-31T17:36:12.398Z,5.07
2022-12-31T17:38:39.592Z,4.00
2022-12-31T17:41:06.690Z,5.97
2022-12-31T17:43:36.445Z,4.38
2022-12-31T17:46:11.688Z,3.80
2022-12-31T17:48:39.053Z,3.58
2022-12-31T17:51:06.418Z,4.55
2022-12-31T17:53:33.635Z,5.50
2022-12-31T17:56:06.434Z,4.72
2022-12-31T17:58:53.997Z,5.10
2022-12-31T18:01:23.265Z,3.95
2022-12-31T18:03:50.543Z,3.25
2022-12-31T18:06:19.789Z,3.63
2022-12-31T18:08:47.309Z,2.90
2022-12-31T18:11:24.229Z,3.40
2022-12-31T18:13:53.153Z,3.05
2022-12-31T18:16:20.358Z,3.72
2022-12-31T18:18:47.503Z,3.50
2022-12-31T18:21:25.449Z,3.53
2022-12-31T18:26:22.474Z,3.33
2022-12-31T18:28:50.429Z,3.03
2022-12-31T18:31:21.573Z,3.55
2022-12-31T18:33:49.877Z,3.17
2022-12-31T18:36:18.603Z,3.80
2022-12-31T18:38:45.745Z,4.22
2022-12-31T18:41:22.039Z,4.25
2022-12-31T18:43:49.840Z,3.85
2022-12-31T18:46:20.014Z,4.80
2022-12-31T18:48:47.396Z,7.53
2022-12-31T18:51:16.829Z,7.80
2022-12-31T18:53:44.194Z,8.20
2022-12-31T18:56:13.707Z,10.15
2022-12-31T18:58:41.304Z,10.90
2022-12-31T19:01:31.371Z,10.32
2022-12-31T19:04:00.897Z,5.63
2022-12-31T19:06:29.008Z,7.10
2022-12-31T19:08:56.633Z,5.35
2022-12-31T19:11:24.227Z,4.90
2022-12-31T19:13:51.424Z,5.32
2022-12-31T19:16:18.587Z,6.15
2022-12-31T19:18:47.508Z,6.88
2022-12-31T19:21:17.849Z,6.13
2022-12-31T19:23:46.311Z,7.45
2022-12-31T19:26:16.700Z,7.95
2022-12-31T19:28:45.204Z,9.05
2022-12-31T19:31:12.973Z,7.00
2022-12-31T19:33:40.217Z,7.07
2022-12-31T19:36:13.704Z,6.13
2022-12-31T19:38:40.823Z,7.22
2022-12-31T19:41:15.246Z,6.63
2022-12-31T19:43:42.364Z,6.68
2022-12-31T19:46:16.872Z,7.72
2022-12-31T19:48:44.912Z,6.05
2022-12-31T19:51:16.727Z,7.85
2022-12-31T19:53:44.815Z,8.00
2022-12-31T19:56:17.711Z,7.53
2022-12-31T19:58:44.885Z,6.80
2022-12-31T20:01:20.360Z,6.80
2022-12-31T20:03:48.639Z,6.43
2022-12-31T20:06:16.499Z,5.88
2022-12-31T20:08:43.615Z,6.70
2022-12-31T20:11:24.448Z,5.97
2022-12-31T20:13:53.687Z,5.32
2022-12-31T20:16:23.808Z,5.65
2022-12-31T20:18:51.233Z,5.85
2022-12-31T20:21:21.061Z,5.95
2022-12-31T20:23:49.953Z,8.65
2022-12-31T20:26:18.592Z,7.22
2022-12-31T20:28:46.271Z,6.25
2022-12-31T20:31:21.206Z,6.40
2022-12-31T20:33:48.412Z,6.85
2022-12-31T20:36:16.899Z,7.13
2022-12-31T20:38:44.668Z,7.82
2022-12-31T20:41:14.567Z,6.63
2022-12-31T20:43:42.236Z,7.03
2022-12-31T20:46:15.962Z,5.68
2022-12-31T20:48:44.657Z,6.93
2022-12-31T20:51:13.110Z,7.00
2022-12-31T20:53:40.712Z,7.63
2022-12-31T20:56:09.701Z,6.75
2022-12-31T20:58:36.996Z,6.95
2022-12-31T21:01:08.557Z,7.63
2022-12-31T21:04:04.398Z,6.82
2022-12-31T21:06:24.382Z,7.10
2022-12-31T21:08:51.678Z,6.38
2022-12-31T21:11:37.294Z,6.28
2022-12-31T21:14:04.472Z,6.10
2022-12-31T21:16:31.959Z,7.65
2022-12-31T21:18:59.096Z,8.18
2022-12-31T21:21:26.155Z,7.43
2022-12-31T21:23:53.512Z,7.18
2022-12-31T21:26:20.595Z,7.15
2022-12-31T21:28:47.669Z,6.45
2022-12-31T21:31:15.458Z,7.03
2022-12-31T21:33:47.205Z,7.85
2022-12-31T21:36:15.093Z,8.18
2022-12-31T21:38:42.567Z,9.52
2022-12-31T21:41:33.280Z,9.35
2022-12-31T21:44:01.781Z,10.07
2022-12-31T21:46:29.073Z,11.07
2022-12-31T21:49:00.976Z,11.73
2022-12-31T21:51:28.672Z,14.70
2022-12-31T21:53:55.981Z,20.17
2022-12-31T21:56:23.308Z,26.27
2022-12-31T21:59:14.933Z,20.92
2022-12-31T22:02:00.736Z,16.90
2022-12-31T22:05:01.036Z,17.80
2022-12-31T22:07:15.770Z,18.42
2022-12-31T22:09:42.822Z,15.00
2022-12-31T22:12:09.944Z,13.48
2022-12-31T22:14:37.077Z,11.95
2022-12-31T22:17:04.236Z,18.70
2022-12-31T22:19:31.335Z,19.27
2022-12-31T22:21:58.422Z,12.60
2022-12-31T22:24:25.481Z,13.27
2022-12-31T22:26:55.647Z,16.10
2022-12-31T22:29:23.761Z,18.90
2022-12-31T22:31:50.911Z,16.27
2022-12-31T22:34:18.610Z,17.73
2022-12-31T22:36:46.388Z,14.95
2022-12-31T22:39:44.706Z,14.82
2022-12-31T22:42:03.957Z,14.02
2022-12-31T22:44:31.068Z,33.67
2022-12-31T22:46:58.239Z,13.68
2022-12-31T22:49:25.917Z,18.15
2022-12-31T22:51:57.397Z,14.18
2022-12-31T22:54:26.961Z,14.20
2022-12-31T22:56:54.113Z,14.60
2022-12-31T22:59:21.198Z,14.70
2022-12-31T23:01:48.337Z,17.00
2022-12-31T23:04:15.702Z,18.52
2022-12-31T23:06:46.181Z,15.90
2022-12-31T23:09:33.683Z,14.48
2022-12-31T23:12:01.037Z,14.02
2022-12-31T23:14:46.516Z,12.73
2022-12-31T23:17:35.590Z,12.15
2022-12-31T23:20:22.283Z,24.38
2022-12-31T23:23:07.772Z,16.95
2022-12-31T23:25:37.105Z,12.65
2022-12-31T23:28:04.915Z,12.70
2022-12-31T23:30:32.117Z,13.77
2022-12-31T23:32:59.293Z,14.85
2022-12-31T23:35:26.386Z,15.75
2022-12-31T23:37:53.493Z,14.20
2022-12-31T23:40:21.822Z,13.57
2022-12-31T23:42:50.211Z,13.20
2022-12-31T23:45:17.471Z,11.15
2022-12-31T23:47:44.610Z,10.68
2022-12-31T23:50:11.687Z,11.13
2022-12-31T23:52:38.730Z,10.85
2022-12-31T23:55:06.064Z,10.77
2022-12-31T23:57:33.063Z,10.68
